createdAt,value
2023-08-11T00:05:49.683Z,0.10
2023-08-11T00:15:54.927Z,0.10
2023-08-11T00:25:59.075Z,0.20
2023-08-11T00:36:03.031Z,0.20
2023-08-11T00:46:14.872Z,0.10
2023-08-11T00:56:23.596Z,0.10
2023-08-11T01:06:48.474Z,0.10
2023-08-11T01:16:56.357Z,0.20
2023-08-11T01:27:04.583Z,0.10
2023-08-11T01:37:09.433Z,0.60
2023-08-11T01:47:20.746Z,0.70
2023-08-11T01:57:23.747Z,0.13
2023-08-11T02:07:26.970Z,0.10
2023-08-11T02:17:38.923Z,0.20
2023-08-11T02:27:41.965Z,0.20
2023-08-11T02:37:45.505Z,0.43
2023-08-11T02:47:48.131Z,0.10
2023-08-11T02:57:51.968Z,0.10
2023-08-11T03:07:58.454Z,0.47
2023-08-11T03:18:02.304Z,0.50
2023-08-11T03:28:06.610Z,0.20
2023-08-11T03:38:09.588Z,0.10
2023-08-11T03:48:14.245Z,0.10
2023-08-11T03:58:25.031Z,0.20
2023-08-11T04:08:30.567Z,0.20
2023-08-11T04:18:36.220Z,0.10
2023-08-11T04:28:39.955Z,0.10
2023-08-11T04:38:45.060Z,0.15
2023-08-11T04:48:54.789Z,0.83
2023-08-11T04:58:58.485Z,0.30
2023-08-11T05:09:11.095Z,0.40
2023-08-11T05:19:14.461Z,0.40
2023-08-11T05:29:16.937Z,0.30
2023-08-11T05:39:25.597Z,0.20
2023-08-11T05:49:28.980Z,0.20
2023-08-11T05:59:31.518Z,0.40
2023-08-11T06:09:36.042Z,0.20
2023-08-11T06:19:49.348Z,0.50
2023-08-11T06:29:56.000Z,0.30
2023-08-11T06:40:00.410Z,1.33
2023-08-11T06:50:09.860Z,0.40
2023-08-11T07:00:17.346Z,0.50
2023-08-11T07:10:20.575Z,0.27
2023-08-11T07:20:33.224Z,0.30
2023-08-11T07:30:37.625Z,0.20
2023-08-11T07:40:43.825Z,0.40
2023-08-11T07:50:57.026Z,0.47
2023-08-11T08:01:03.384Z,0.55
2023-08-11T08:11:09.946Z,0.20
2023-08-11T08:21:24.878Z,0.60
2023-08-11T08:31:28.429Z,0.40
2023-08-11T08:41:40.681Z,0.80
2023-08-11T08:52:05.976Z,0.20
2023-08-11T09:02:31.292Z,1.00
2023-08-11T09:12:38.012Z,0.40
2023-08-11T09:22:44.978Z,0.30
2023-08-11T09:33:08.065Z,0.57
2023-08-11T09:43:24.152Z,0.50
2023-08-11T09:53:47.001Z,0.40
2023-08-11T10:04:08.809Z,0.50
2023-08-11T10:14:15.251Z,0.52
2023-08-11T10:24:39.104Z,0.60
2023-08-11T10:34:46.137Z,0.60
2023-08-11T10:45:16.291Z,0.47
2023-08-11T10:55:39.042Z,0.35
2023-08-11T11:06:18.032Z,0.80
2023-08-11T11:16:34.725Z,0.40
2023-08-11T11:26:37.502Z,0.65
2023-08-11T11:37:01.080Z,1.10
2023-08-11T11:47:10.567Z,0.77
2023-08-11T11:57:13.438Z,1.40
2023-08-11T12:07:33.822Z,0.60
2023-08-11T12:17:37.719Z,0.70
2023-08-11T12:28:00.235Z,1.05
2023-08-11T12:38:17.314Z,0.67
2023-08-11T12:48:37.116Z,0.80
2023-08-11T12:58:47.179Z,1.20
2023-08-11T13:08:56.937Z,0.80
2023-08-11T13:19:00.018Z,1.00
2023-08-11T13:29:23.183Z,1.42
2023-08-11T13:39:45.364Z,1.20
2023-08-11T13:50:08.143Z,1.10
2023-08-11T14:00:22.117Z,1.33
2023-08-11T14:10:39.072Z,1.27
2023-08-11T14:21:01.068Z,0.70
2023-08-11T14:31:03.661Z,1.00
2023-08-11T14:41:26.147Z,1.17
2023-08-11T14:51:42.400Z,0.73
2023-08-11T15:02:06.259Z,0.70
2023-08-11T15:12:23.522Z,0.67
2023-08-11T15:22:36.515Z,0.70
2023-08-11T15:32:57.154Z,1.17
2023-08-11T15:43:17.147Z,1.10
2023-08-11T15:53:40.199Z,1.20
2023-08-11T16:03:46.441Z,0.88
2023-08-11T16:13:49.527Z,0.80
2023-08-11T16:24:12.233Z,0.80
2023-08-11T16:34:17.414Z,0.68
2023-08-11T16:44:20.318Z,0.60
2023-08-11T16:54:23.896Z,0.70
2023-08-11T17:04:33.666Z,0.88
2023-08-11T17:14:37.791Z,0.60
2023-08-11T17:24:41.052Z,0.60
2023-08-11T17:34:57.721Z,0.47
2023-08-11T17:45:21.282Z,0.30
2023-08-11T17:55:37.430Z,0.50
2023-08-11T18:06:00.238Z,0.60
2023-08-11T18:16:16.700Z,0.50
2023-08-11T18:26:23.413Z,0.50
2023-08-11T18:36:37.495Z,0.43
2023-08-11T18:47:00.317Z,0.50
2023-08-11T18:57:13.442Z,0.50
2023-08-11T19:07:22.822Z,0.37
2023-08-11T19:17:45.265Z,0.80
2023-08-11T19:27:48.809Z,0.57
2023-08-11T19:38:08.979Z,0.30
2023-08-11T19:48:20.112Z,0.20
2023-08-11T19:58:22.752Z,0.40
2023-08-11T20:08:25.681Z,0.30
2023-08-11T20:18:37.694Z,0.30
2023-08-11T20:28:47.660Z,0.20
2023-08-11T20:38:57.725Z,0.40
2023-08-11T20:49:00.189Z,0.20
2023-08-11T20:59:02.815Z,0.40
2023-08-11T21:09:06.098Z,0.20
2023-08-11T21:19:20.098Z,0.20
2023-08-11T21:29:31.205Z,0.30
2023-08-11T21:39:40.405Z,0.33
2023-08-11T21:50:03.317Z,0.20
2023-08-11T22:00:31.355Z,0.20
2023-08-11T22:10:42.512Z,0.20
2023-08-11T22:20:49.010Z,0.43
2023-08-11T22:31:11.491Z,0.60
2023-08-11T22:41:25.786Z,0.55
2023-08-11T22:51:32.262Z,0.33
2023-08-11T23:01:37.342Z,0.37
2023-08-11T23:11:40.169Z,0.22
2023-08-11T23:21:55.446Z,0.40
2023-08-11T23:32:06.558Z,0.20
2023-08-11T23:42:10.920Z,0.27
2023-08-11T23:52:27.427Z,0.20
